Center Banner
 

Chief Wetona Challenge Trail Run

Overall Finish List

May 21, 2017


Results by Integrity Racing Integrity Racing
7 Mile

14 Mile

Place Name City Bib No Age Gender Age Group Total Time Pace
1 MATT LIPSEY 91 27 M 1 Top Fin 1:45:46.61 7:33/M
2 DEREK WAUGHEN 169 29 M 1 20-29 1:55:21.36 8:14/M
3 STEVE TEMPLIN 158 44 M 1 Top Fin 1:56:26.69 8:19/M
4 JUSTIN BEATTY 8 38 M 1 30-39 2:00:13.87 8:35/M
5 JOSHUA GAVITT 51 42 M 1 40-49 2:01:01.45 8:39/M
6 BROCK WAUGHEN 168 26 M 2 20-29 2:01:24.62 8:40/M
7 ERNEST GLICK 54 34 M 2 30-39 2:05:48.87 8:59/M
8 MEIRA MINARD 323 43 F 1 Top Fin 2:05:54.78 9:00/M
9 MICHAEL DINSMORE 34 34 M 3 30-39 2:06:01.62 9:00/M
10 CAROLE DUDUKOVICH 35 50 F 1 Top Fin 2:06:39.16 9:03/M
11 JOHN JOHNSON 74 44 M 2 40-49 2:06:42.42 9:03/M
12 BARRETT ALLISON 2 34 M 4 30-39 2:08:33.86 9:11/M
13 CHRIS COWDEN 321 43 M 3 40-49 2:11:11.88 9:22/M
14 PORT HABALAR 61 15 M 1 1-15 2:11:42.67 9:24/M
15 SCOTT FALKNER 42 46 M 4 40-49 2:12:31.88 9:28/M
16 BOB BAUER 6 44 M 5 40-49 2:13:09.88 9:31/M
17 ALEXANDER PORTER 121 23 M 3 20-29 2:14:22.88 9:36/M
18 MIKE DELORSO 32 32 M 5 30-39 2:14:47.44 9:38/M
19 BRIANNA BAIR 3 37 F 1 30-39 2:15:20.88 9:40/M
20 GREG LANGE 87 56 M 1 50-59 2:15:48.38 9:42/M
21 RYAN NAPP 112 39 M 6 30-39 2:16:57.69 9:47/M
22 TYLER WAGNER 167 28 M 4 20-29 2:17:43.58 9:50/M
23 MICHAEL HABALAR 60 43 M 6 40-49 2:17:59.59 9:51/M
24 JOHANNA OHM 118 26 F 1 20-29 2:19:30.38 9:58/M
25 DEANNA ARDREY 320 34 F 2 30-39 2:19:35.57 9:58/M
26 RYAN GROCHAL 58 34 M 7 30-39 2:20:17.14 10:01/M
27 SAYARD TANIS 152 35 F 3 30-39 2:21:01.13 10:04/M
28 SEAN MACMILLEN 5 43 M 7 40-49 2:22:47.80 10:12/M
29 CRAIG FLEMING 45 45 M 8 40-49 2:24:08.59 10:18/M
30 KEEGAN BEARD 7 18 M 1 16-19 2:24:43.47 10:20/M
31 TIM SPIGELMYER 151 52 M 2 50-59 2:24:46.13 10:20/M
32 MICHAEL SCHUBACH 139 45 M 9 40-49 2:25:16.13 10:23/M
33 JEFFREY FAHERTY 40 29 M 5 20-29 2:25:30.76 10:24/M
34 BROCK RIDER 130 38 M 8 30-39 2:25:41.91 10:24/M
35 CHRISTOPHER FALKNER 41 21 M 6 20-29 2:26:12.14 10:27/M
36 NATE KING 80 43 M 10 40-49 2:28:15.52 10:35/M
37 JAMES TERRIBILINI 159 33 M 9 30-39 2:29:24.10 10:40/M
38 JOSH TEETER 154 40 M 11 40-49 2:31:30.39 10:49/M
39 GARY LAMPMAN 86 52 M 3 50-59 2:31:38.62 10:50/M
40 MATT BORDAS 12 17 M 2 16-19 2:31:49.18 10:51/M
41 MICHAEL RANCK 126 66 M 1 60-69 2:32:37.62 10:54/M
42 AMY KRATZER 83 37 F 4 30-39 2:32:40.46 10:54/M
43 KALE WEIDNER 172 17 M 3 16-19 2:34:03.69 11:00/M
44 JODY WEIDNER 171 52 M 4 50-59 2:34:33.64 11:02/M
45 CHRISTOPHER YEAGER 178 43 M 12 40-49 2:34:58.53 11:04/M
46 GEORGE CAMP 22 56 M 5 50-59 2:35:04.53 11:05/M
47 ALLISON SAUNDERS 135 35 F 5 30-39 2:35:18.73 11:06/M
48 JODY DEWALD 33 48 M 13 40-49 2:35:23.14 11:06/M
49 BECKY KOSEK 319 36 F 6 30-39 2:36:49.43 11:12/M
50 SEAN CONLIN 27 47 M 14 40-49 2:37:20.94 11:14/M
51 ADAM BRENNAN 15 36 M 10 30-39 2:38:03.26 11:17/M
52 NICK NOLL 114 18 M 4 16-19 2:38:07.92 11:18/M
53 ALEXANDER FOX 49 53 M 6 50-59 2:38:16.32 11:18/M
54 PAUL HAIGES III 65 49 M 15 40-49 2:38:20.00 11:19/M
55 JIM EBERLY 39 43 M 16 40-49 2:39:01.76 11:22/M
56 CHRISTOPHER COON 28 30 M 11 30-39 2:39:14.39 11:22/M
57 JEFFREY LOVELL 93 53 M 7 50-59 2:39:16.79 11:23/M
58 DAN KOSSACK 82 54 M 8 50-59 2:39:39.27 11:24/M
59 TANIA LEZAK 90 39 F 7 30-39 2:39:59.90 11:26/M
60 SHAWN BROWN 17 41 M 17 40-49 2:40:02.34 11:26/M
61 TROY MILLER 102 47 M 18 40-49 2:40:47.14 11:29/M
62 BRANDON FOLK 47 31 M 12 30-39 2:41:01.90 11:30/M
63 JEFFREY SHANKS 142 31 M 13 30-39 2:41:53.15 11:34/M
64 STEPHEN SAYLOR 136 47 M 19 40-49 2:42:02.95 11:34/M
65 JOHN SHAFFER 141 46 M 20 40-49 2:42:19.39 11:36/M
66 MATTHEW GORSLINE 56 13 M 2 1-15 2:42:35.60 11:37/M
67 ED PRY 125 47 M 21 40-49 2:42:42.10 11:37/M
68 KIMARIE GORSLINE 55 40 F 1 40-49 2:42:44.73 11:37/M
69 JOSEPH MOORE 105 17 M 5 16-19 2:43:04.61 11:39/M
70 MICHELE BROWN 324 46 F 2 40-49 2:43:40.29 11:41/M
71 SHANNON OAKES 117 40 F 3 40-49 2:44:24.13 11:45/M
72 KAITLYN SINGER 145 28 F 2 20-29 2:44:35.89 11:45/M
73 MIKE RANDALL 127 48 M 22 40-49 2:44:39.13 11:46/M
74 WILLIAM SCHLORFF 137 53 M 9 50-59 2:44:53.35 11:47/M
75 JIMMY SMUCKER 150 29 M 7 20-29 2:47:10.15 11:56/M
76 RYANN SLUSSER 148 11 F 1 1-15 2:48:22.40 12:02/M
77 LUCAS NICHOLS 113 19 M 6 16-19 2:48:22.65 12:02/M
78 BRETT SHELTON 143 45 M 23 40-49 2:48:25.65 12:02/M
79 GARTH MITCHELL 103 53 M 10 50-59 2:50:13.40 12:10/M
80 RENEE CALVERT 21 50 F 1 50-59 2:50:36.17 12:11/M
81 RACHEL MURPHY 109 36 F 8 30-39 2:50:54.59 12:12/M
82 RICHARD FILLMAN 44 64 M 2 60-69 2:51:04.65 12:13/M
83 RUIE BUTLER 19 36 F 9 30-39 2:51:23.86 12:15/M
84 TERESA BARNES 4 45 F 4 40-49 2:51:45.13 12:16/M
85 BRYAN TEETER 153 43 M 24 40-49 2:52:42.79 12:20/M
86 CARRIE REARICK 128 36 F 10 30-39 2:52:44.40 12:20/M
87 LYNN HINMAN 69 38 F 11 30-39 2:52:53.10 12:21/M
88 NIKI CARTER 24 37 F 12 30-39 2:53:45.91 12:25/M
89 STEPHANIE LOVELL 94 46 F 5 40-49 2:54:47.92 12:29/M
90 MAUREEN BOWER 13 33 F 13 30-39 2:55:11.41 12:31/M
91 BRIAN BROWN 16 42 M 25 40-49 2:58:30.39 12:45/M
92 CHRISTOPHER ROSSITER 132 32 M 14 30-39 2:59:14.40 12:48/M
93 MICHAEL TEETER 156 37 M 15 30-39 2:59:43.41 12:50/M
94 TUSHANNA HABALAR 62 42 F 6 40-49 3:00:15.65 12:53/M
95 SHELLEY MUTH 110 43 F 7 40-49 3:01:36.79 12:58/M
96 JEFF HOLBROOK 71 54 M 11 50-59 3:02:50.41 13:04/M
97 DAVID SLUSSER JR. 149 41 M 26 40-49 3:04:31.67 13:11/M
98 BRIAN KUNKLE 84 35 M 16 30-39 3:04:31.91 13:11/M
99 BURDETT PORTER 122 55 M 12 50-59 3:04:43.85 13:12/M
100 ROBERT FARRELL 43 47 M 27 40-49 3:05:07.20 13:13/M
 
Place Name City Bib No Age Gender Age Group Total Time Pace
101 TABBY DUNN 36 32 F 14 30-39 3:05:21.66 13:14/M
102 DANIEL ROSSITER 133 35 M 17 30-39 3:06:03.40 13:17/M
103 EZRA MILLER 100 14 M 3 1-15 3:06:23.88 13:19/M
104 ELIZABETH SHAFFER 140 14 F 2 1-15 3:06:26.51 13:19/M
105 CARLI MCCONNELL 97 13 F 3 1-15 3:06:32.16 13:19/M
106 ASHLYN WERT 174 17 F 1 16-19 3:07:33.25 13:24/M
107 MATT ZERBY 180 29 M 8 20-29 3:08:37.17 13:28/M
108 PATRICK FOURNEY 48 46 M 28 40-49 3:09:08.15 13:31/M
109 JANE MUNN 108 49 M 29 40-49 3:09:26.62 13:32/M
110 MCKENZI BELLINGER 9 14 F 4 1-15 3:09:42.85 13:33/M
111 MATTHEW GEER 52 39 M 18 30-39 3:10:01.91 13:34/M
112 KELLEY TEETER 155 30 F 15 30-39 3:12:08.49 13:43/M
113 THOMAS TEETER 157 68 M 3 60-69 3:12:08.67 13:43/M
114 BILL MCCONNELL 96 41 M 30 40-49 3:12:36.16 13:45/M
115 MISTY TROWBRIDGE 161 36 F 16 30-39 3:13:41.67 13:50/M
116 JASON HENRY 68 38 M 19 30-39 3:14:19.30 13:53/M
117 MIKE MEAGHER 99 55 M 13 50-59 3:14:27.86 13:53/M
118 REBECCA SPENCER 287 28 F 3 20-29 3:15:08.84 13:56/M
119 SUE REARICK 129 35 F 17 30-39 3:16:39.11 14:03/M
120 TERRY BENNETT 10 18 M 7 16-19 3:16:56.79 14:04/M
121 TRACY NOLL 116 47 F 8 40-49 3:16:56.92 14:04/M
122 SAMANTHA WEAVER 170 44 F 9 40-49 3:19:28.58 14:15/M
123 KEITH LOUGHNEY 92 32 M 20 30-39 3:24:33.40 14:37/M
124 ZEBULON DUNN 37 30 M 21 30-39 3:28:34.68 14:54/M
125 NICHOLE ALBERS 1 25 F 4 20-29 3:29:28.18 14:58/M
126 STEPHANIE MORROW 107 44 F 10 40-49 3:29:38.15 14:58/M
127 BETSY LEWIS 89 40 F 11 40-49 3:31:56.68 15:08/M
128 ADELL WILLIAMS 176 38 F 18 30-39 3:35:33.88 15:24/M
129 GINA WERT 175 51 F 2 50-59 3:35:39.15 15:24/M
130 PETE GSTALDER 59 63 M 4 60-69 3:38:44.18 15:37/M
131 TARI TROWBRIDGE 162 46 F 12 40-49 3:39:03.91 15:39/M
132 LEWIS BUCHANAN 18 55 M 14 50-59 3:40:17.99 15:44/M
133 KIMBERLY SLUSSER 147 40 F 13 40-49 3:43:16.84 15:57/M
134 MARYBETH DAY 31 46 F 14 40-49 3:43:17.43 15:57/M
135 ERIN KENNEDY 78 40 F 15 40-49 3:49:34.94 16:24/M
136 REBECCA RUSCZYK 134 30 F 19 30-39 3:49:38.75 16:24/M
137 HEATHER GARBRICK 50 44 F 16 40-49 3:50:07.97 16:26/M
138 JENNIFER ULMER 163 44 F 17 40-49 3:51:20.12 16:31/M
139 JULIE SCHROETER 138 26 F 5 20-29 3:52:50.94 16:38/M
140 CARL UNDERCOFLER 164 79 M 1 70-99 3:53:12.11 16:39/M
141 RACHEL EBELING 38 38 F 20 30-39 3:53:12.28 16:39/M
142 JANE KONE 81 63 F 1 60-69 3:53:12.44 16:39/M
143 LEIGH TRASCO 160 49 F 18 40-49 3:53:31.44 16:41/M
144 JOAN WELFLING 173 59 F 3 50-59 3:54:36.86 16:45/M
145 DIANE FLICK 46 42 F 19 40-49 3:56:26.19 16:53/M
146 JENNIFER LENIG 88 40 F 20 40-49 3:57:25.11 16:58/M
147 PAUL NOLL 115 44 M 31 40-49 3:57:44.37 16:59/M
148 ALISON PORTANOVA 120 45 F 21 40-49 4:02:48.94 17:21/M
149 JASON ZOOK 181 35 M 22 30-39 4:10:01.78 17:52/M
150 LESLIE CLUKEY 25 51 F 4 50-59 4:10:25.65 17:53/M
151 RUSSELL WAGNER 166 65 M 5 60-69 4:16:04.36 18:17/M
152 LEE KELCHNER 77 54 M 15 50-59 4:16:59.45 18:21/M
153 KAY KELCHNER 76 58 F 5 50-59 4:16:59.53 18:21/M
154 HOWARD CUSHMAN 30 49 M 32 40-49 4:18:30.85 18:28/M
155 SUE JOHNSON 75 52 F 6 50-59 4:19:44.95 18:33/M
156 MICHELE HOBBS 70 47 F 22 40-49 4:24:27.70 18:53/M
157 ALLAN GILBERT 53 55 M 16 50-59 4:26:15.19 19:01/M
158 RUTH PRIESTER 123 48 F 23 40-49 4:26:54.32 19:04/M
159 RICK CRUZ 29 55 M 17 50-59 4:28:24.99 19:10/M
160 MONIKA MILLER 101 36 F 21 30-39 4:29:00.70 19:13/M
161 JENNIFER HOLDREN 72 32 F 22 30-39 4:29:00.70 19:13/M
162 WAYNE LAMONT 85 51 M 18 50-59 4:29:03.00 19:13/M
163 TERRI CAMPBELL 23 57 F 7 50-59 4:34:57.30 19:38/M
164 DONNA WAGNER 165 49 F 24 40-49 4:36:22.11 19:44/M
165 KASEY BLESH 11 27 F 6 20-29 4:53:33.96 20:58/M
166 NICOLE CALLAHAN 20 24 F 7 20-29 4:53:36.41 20:58/M
167 SUSAN MUTHLER 111 49 F 25 40-49 5:09:11.46 22:05/M
168 TAMMY MCCLOSKEY 95 48 F 26 40-49 5:09:12.31 22:05/M
169 BECKY PROCTOR 124 47 F 27 40-49 5:12:30.22 22:19/M
170 TAB BOWES 14 50 F 8 50-59 5:12:31.94 22:19/M
Top  

7 Mile

Place Name City Bib No Age Gender Age Group Total Time Pace
1 JOHN MARENKOVIC 244 19 M 1 Top Fin 50:36.20 7:14/M
2 COLLIN WRIGHT 314 14 M 1 1-15 53:31.87 7:39/M
3 LOUIS LEVESQUE 240 16 M 1 16-19 54:41.62 7:49/M
4 LUKE AUER 185 17 M 2 16-19 56:05.59 8:01/M
5 LUCAS CALVERT 196 20 M 1 20-29 56:14.13 8:02/M
6 ZACKARY GREEN 222 23 M 2 20-29 57:25.75 8:12/M
7 THADDEUS MAY 247 16 M 3 16-19 1:00:23.78 8:38/M
8 LUCAS STONE 292 37 M 1 30-39 1:01:14.85 8:45/M
9 JOSHUA HADEN 63 36 M 2 30-39 1:02:28.28 8:55/M
10 LEVI LARSON 236 38 M 3 30-39 1:03:01.62 9:00/M
11 BENJAMIN FALKNER 213 18 M 4 16-19 1:03:29.92 9:04/M
12 JOSHUA MCCLELLAND 250 15 M 2 1-15 1:03:55.29 9:08/M
13 ISAAC MAY 246 13 M 3 1-15 1:04:43.54 9:15/M
14 JOE QUATRINI 267 40 M 1 Top Fin 1:04:53.48 9:16/M
15 CINDY SWANK 296 51 F 1 Top Fin 1:05:53.37 9:25/M
16 AARON CRIST 200 43 M 1 40-49 1:06:48.41 9:33/M
17 JASON KOBBE 232 41 M 2 40-49 1:06:53.61 9:33/M
18 SETH LENGEL 238 26 M 3 20-29 1:06:56.62 9:34/M
19 CAMERON SERAFINI 279 23 M 4 20-29 1:07:58.32 9:43/M
20 TRACY WRIGHT 315 42 F 1 40-49 1:07:59.87 9:43/M
21 JOHN SECOR 278 33 M 4 30-39 1:09:08.87 9:53/M
22 TIM BARD 188 57 M 1 50-59 1:09:15.20 9:54/M
23 MARTIN G PEREZ 263 48 M 3 40-49 1:13:54.63 10:33/M
24 JENNIFER KLINE 230 32 F 1 Top Fin 1:14:26.37 10:38/M
25 BRAD WEISKOPFF 307 41 M 4 40-49 1:14:42.56 10:40/M
26 GARY REARICK JR 272 44 M 5 40-49 1:15:25.98 10:46/M
27 BRIAN POTTER 265 53 M 2 50-59 1:15:48.97 10:50/M
28 JESSICA FLYNN 215 37 F 1 30-39 1:16:36.80 10:57/M
29 BETH HERBST 225 48 F 2 40-49 1:17:29.88 11:04/M
30 DAVE DECKER 204 58 M 3 50-59 1:17:46.80 11:07/M
31 MORGAN GAVITT 219 13 M 4 1-15 1:18:15.58 11:11/M
32 CARTER STERE 289 12 M 5 1-15 1:18:29.63 11:13/M
33 BEN EASTON 209 13 M 6 1-15 1:18:31.82 11:13/M
34 BRENDA MAY 245 51 F 1 50-59 1:18:36.30 11:14/M
35 MICHELE WOLCOTT-LOVELL 311 42 F 3 40-49 1:18:47.57 11:15/M
36 JULIE AQUILIO 182 44 F 4 40-49 1:19:05.88 11:18/M
37 STACEY FALKNER 214 46 F 5 40-49 1:19:22.55 11:20/M
38 EVAN MADILL 243 22 M 5 20-29 1:19:37.38 11:22/M
39 PATRICIA CAMPBELL 197 51 F 2 50-59 1:20:18.33 11:28/M
40 TRAVIS KLINE 231 15 M 7 1-15 1:20:53.62 11:33/M
41 PAM HERLAN 226 51 F 3 50-59 1:21:12.52 11:36/M
42 KURT WEILAND 306 32 M 5 30-39 1:21:19.14 11:37/M
43 ALEXANDRA BUTLER 193 30 F 2 30-39 1:21:19.20 11:37/M
44 RACHEL KIRK 228 38 F 3 30-39 1:21:49.13 11:41/M
45 LEEANN LEVESQUE 239 53 F 4 50-59 1:22:21.63 11:46/M
46 SHANNON VANSKIVER 301 47 F 6 40-49 1:22:46.81 11:49/M
47 AMY FRY 217 42 F 7 40-49 1:22:48.32 11:50/M
48 VALERIE DUFF 206 43 F 8 40-49 1:24:14.44 12:02/M
49 JERRY ROSS 274 51 M 4 50-59 1:24:16.59 12:02/M
50 GARY REARICK 270 63 M 1 60-69 1:25:19.60 12:11/M
51 CHELSEA PURCELL 266 26 F 1 20-29 1:25:28.88 12:13/M
52 JENNY PARKS 325 38 F 4 30-39 1:25:37.83 12:14/M
53 DYLAN GERATY 220 20 M 6 20-29 1:26:51.64 12:24/M
54 OLIVIA OVERDORF 260 19 F 1 16-19 1:26:51.85 12:24/M
55 BARBARA WYWIORSKI 317 57 F 5 50-59 1:27:00.89 12:26/M
56 COLLEEN CHILSON 322 39 F 5 30-39 1:27:02.19 12:26/M
57 STEPHEN PAGE 261 66 M 2 60-69 1:27:05.14 12:26/M
58 SUE KING 227 45 F 9 40-49 1:27:17.89 12:28/M
59 AMY SNYDER 286 38 F 6 30-39 1:27:47.10 12:32/M
60 KIMBERLY VANSKIVER 300 47 F 10 40-49 1:28:14.64 12:36/M
61 PATTI KOSSACK 234 54 F 6 50-59 1:28:48.95 12:41/M
62 MICHELE QUATRINI 268 41 F 11 40-49 1:28:56.39 12:42/M
63 TALIET GERRETSEN 221 30 F 7 30-39 1:29:43.58 12:49/M
64 PAM REARICK 271 62 F 1 60-69 1:30:19.69 12:54/M
65 ELSA WOOD 312 9 F 1 1-15 1:30:30.59 12:56/M
66 LAURA WOOD 313 42 F 12 40-49 1:30:30.59 12:56/M
67 DAWN STORMS 293 41 F 13 40-49 1:30:37.51 12:57/M
68 MANDY DURLAND 208 37 F 8 30-39 1:31:29.24 13:04/M
69 KIRSTEN LABANT 235 27 F 2 20-29 1:31:35.12 13:05/M
70 MADISON SUROVEC 295 15 F 2 1-15 1:32:17.39 13:11/M
71 DAVID SUROVEC 294 38 M 6 30-39 1:32:19.34 13:11/M
72 TERRY PARIS 262 39 M 7 30-39 1:32:51.14 13:16/M
73 VERONICA WEAVER 305 49 F 14 40-49 1:32:55.30 13:16/M
74 KARI FAHERTY 212 29 F 3 20-29 1:34:27.38 13:30/M
75 JANINE BUTLER 194 56 F 7 50-59 1:34:44.83 13:32/M
76 LAURA BRENNAN 192 34 F 9 30-39 1:35:13.85 13:36/M
77 REBECCA MURDOCK 258 38 F 10 30-39 1:35:52.98 13:42/M
78 CATHERINE DEMURO 205 27 F 4 20-29 1:36:03.64 13:43/M
79 RENEE SHAY 281 45 F 15 40-49 1:36:27.49 13:47/M
80 MISTY JO BLOWERS 189 40 F 16 40-49 1:37:19.39 13:54/M
81 LARYSSA SHAFFER 280 26 F 5 20-29 1:38:48.54 14:07/M
82 CONNIE MUMMEY 257 60 F 2 60-69 1:39:09.39 14:10/M
83 PAM SLUSSER 285 37 F 11 30-39 1:39:13.64 14:10/M
84 ROBERT BAGULEY 187 62 M 3 60-69 1:39:56.30 14:17/M
85 MELISSA SANFORD 276 37 F 12 30-39 1:40:50.29 14:24/M
86 TRAVIS STIFFLER 291 12 M 8 1-15 1:41:00.62 14:26/M
87 DICK MORGAN 254 74 M 1 70-99 1:41:17.65 14:28/M
88 DAWN STIFFLER 290 40 F 17 40-49 1:41:22.54 14:29/M
89 MICHELLE SHEDDEN 282 53 F 8 50-59 1:42:11.90 14:36/M
90 BARB MORGAN 253 72 F 1 70-99 1:42:18.65 14:37/M
91 KIMBERLY HAZLETT 328 40 F 18 40-49 1:45:52.90 15:07/M
92 STEPHEN HAZLETT 329 38 M 8 30-39 1:45:53.35 15:08/M
93 CHARLY SLUSSER 283 13 F 3 1-15 1:46:54.68 15:16/M
94 KAMRYN SLUSSER 284 7 F 4 1-15 1:46:54.90 15:16/M
95 RENEE BOYLE 190 45 F 19 40-49 1:48:19.90 15:28/M
96 AIYANA HAZLETT 330 16 F 2 16-19 1:48:45.66 15:32/M
97 TODD LIDGETT 241 40 M 6 40-49 1:50:10.54 15:44/M
98 ALEXIS WATKINS 303 10 F 5 1-15 1:50:25.90 15:46/M
99 MARY DAUBERMAN 202 53 F 9 50-59 1:50:25.90 15:46/M
100 PIPER EBELING 211 9 F 6 1-15 1:55:48.48 16:33/M
 
Place Name City Bib No Age Gender Age Group Total Time Pace
101 JUDITH OAKS 327 52 F 10 50-59 1:56:02.29 16:35/M
102 DEBRA MORIN 106 60 F 3 60-69 1:56:08.56 16:35/M
103 LUKE EBELING 210 42 M 7 40-49 1:56:09.37 16:36/M
104 LOUISE BREESE 191 45 F 20 40-49 1:57:53.84 16:50/M
105 ROBERT VANDERPOOL 299 45 M 8 40-49 1:57:57.88 16:51/M
106 ANN CROWLEY 201 47 F 21 40-49 1:58:03.20 16:52/M
107 REG JOHNSON 326 68 M 4 60-69 2:00:07.90 17:10/M
108 TINA ZECHMAN 318 49 F 22 40-49 2:00:21.12 17:12/M
109 JUDITH BAGULEY 186 53 F 11 50-59 2:02:19.41 17:28/M
110 MARY FRISBIE 216 49 F 23 40-49 2:02:45.18 17:32/M
111 JEFF RUSSELL 275 54 M 5 50-59 2:02:46.16 17:32/M
112 ELISA MACMILLEN 242 31 F 13 30-39 2:04:31.25 17:47/M
113 JOSEPH WATKINS 304 12 M 9 1-15 2:04:32.66 17:47/M
114 BRAEDAN KLINE 229 12 M 10 1-15 2:05:49.76 17:58/M
115 VICTORIA SHUPE 144 38 F 14 30-39 2:10:58.41 18:43/M
116 COREY GSTALDER 224 26 F 6 20-29 2:12:45.67 18:58/M
117 TIM SWIFT 298 44 M 9 40-49 2:12:57.70 19:00/M
118 RHYS SWIFT 297 9 M 11 1-15 2:12:58.34 19:00/M
119 ALEX GSTALDER 223 28 F 7 20-29 2:13:35.47 19:05/M
120 MARK LENGEL 237 56 M 6 50-59 2:13:49.75 19:07/M
121 JENNIFER HAGAMAN 64 43 F 24 40-49 2:15:20.34 19:20/M
122 KATHY YOUNG 179 46 F 25 40-49 2:15:20.67 19:20/M
123 MARTINA PIERCE 264 45 F 26 40-49 2:38:52.93 22:42/M
124 KAYLA SAXON 277 28 F 8 20-29 2:38:55.18 22:42/M